Time;durP1;ratioP1;P1;durP2;ratioP2;P2;SDS_P1;SDS_P2;PMS_P1;PMS_P2;Temp;Humidity;BMP_temperature;BMP_pressure;BME280_temperature;BME280_humidity;BME280_pressure;Samples;Min_cycle;Max_cycle;Signal;HPM_P1;HPM_P2
2023/08/04 00:00:14;;;;;;;5.20;1.95;;;;;;;27.33;43.28;99453.75;5094833;28;20036;-76
2023/08/04 00:02:39;;;;;;;5.00;1.55;;;;;;;27.31;43.05;99445.00;5094955;28;20020;-76
2023/08/04 00:05:06;;;;;;;3.83;1.23;;;;;;;27.31;43.01;99450.34;5094690;28;20077;-77
2023/08/04 00:07:33;;;;;;;6.28;1.58;;;;;;;27.29;42.85;99452.31;5094369;28;20046;-77
2023/08/04 00:09:58;;;;;;;5.97;2.08;;;;;;;27.26;43.07;99448.06;5094561;28;20436;-76
2023/08/04 00:12:24;;;;;;;5.57;1.73;;;;;;;27.28;43.15;99446.13;5093379;28;20115;-78
2023/08/04 00:14:50;;;;;;;4.82;1.33;;;;;;;27.27;43.25;99439.06;5094788;28;20017;-77
2023/08/04 00:17:15;;;;;;;6.03;1.48;;;;;;;27.26;42.97;99449.91;5094723;28;20488;-77
2023/08/04 00:19:42;;;;;;;5.00;1.33;;;;;;;27.25;43.31;99446.38;5094454;28;20034;-77
2023/08/04 00:22:08;;;;;;;4.88;1.55;;;;;;;27.25;43.25;99450.91;5094297;28;20024;-77
2023/08/04 00:24:33;;;;;;;3.92;1.05;;;;;;;27.21;43.33;99447.63;5094584;28;20031;-77
2023/08/04 00:27:00;;;;;;;4.43;1.55;;;;;;;27.20;43.38;99443.25;5094524;28;20021;-76
2023/08/04 00:29:26;;;;;;;4.57;1.38;;;;;;;27.19;43.35;99445.09;5094167;28;20647;-77
2023/08/04 00:31:51;;;;;;;5.22;1.60;;;;;;;27.20;43.35;99445.94;5094394;28;20046;-77
2023/08/04 00:34:17;;;;;;;4.90;1.38;;;;;;;27.20;43.49;99448.59;5094532;28;20103;-77
2023/08/04 00:36:44;;;;;;;4.85;1.73;;;;;;;27.22;43.17;99452.03;5094073;28;20076;-77
2023/08/04 00:39:10;;;;;;;4.50;1.27;;;;;;;27.18;43.33;99455.94;5094024;28;20099;-77
2023/08/04 00:41:35;;;;;;;3.67;1.40;;;;;;;27.17;43.15;99451.56;5093946;28;20103;-77
2023/08/04 00:44:01;;;;;;;5.57;1.40;;;;;;;27.18;43.21;99455.94;5094016;28;20020;-76
2023/08/04 00:46:27;;;;;;;6.05;1.70;;;;;;;27.17;43.00;99449.72;5094059;28;20503;-77
2023/08/04 00:48:53;;;;;;;4.60;1.60;;;;;;;27.16;43.12;99447.19;5094185;28;20491;-76
2023/08/04 00:51:19;;;;;;;5.03;1.50;;;;;;;27.13;43.53;99455.50;5093702;28;20016;-76
2023/08/04 00:53:45;;;;;;;5.53;1.50;;;;;;;27.10;43.46;99450.41;5092754;28;20041;-77
2023/08/04 00:56:10;;;;;;;6.13;1.45;;;;;;;27.10;43.29;99445.06;5093960;28;20475;-76
2023/08/04 00:58:36;;;;;;;5.13;1.55;;;;;;;27.08;43.52;99445.19;5093740;28;20016;-78
2023/08/04 01:01:01;;;;;;;4.05;1.20;;;;;;;27.07;43.52;99444.31;5093614;28;20041;-78
2023/08/04 01:03:27;;;;;;;3.88;1.20;;;;;;;27.06;43.21;99450.69;5093527;28;20031;-77
2023/08/04 01:06:18;;;;;;;3.80;1.42;;;;;;;27.06;43.22;99447.13;5093500;28;20452;-77
2023/08/04 01:09:00;;;;;;;4.50;1.40;;;;;;;27.06;43.46;99442.63;5082787;28;20051;-77
2023/08/04 01:11:33;;;;;;;6.20;1.67;;;;;;;27.06;43.29;99444.47;5093683;28;20024;-76
2023/08/04 01:14:01;;;;;;;6.88;1.65;;;;;;;27.02;43.77;99445.72;5093630;28;20028;-76
2023/08/04 01:16:27;;;;;;;5.13;1.20;;;;;;;27.02;43.41;99445.72;5093475;28;20496;-77
2023/08/04 01:18:58;;;;;;;4.45;1.70;;;;;;;27.03;43.67;99450.94;5093306;28;20040;-77
2023/08/04 01:21:23;;;;;;;5.60;1.33;;;;;;;27.00;43.60;99451.22;5091697;28;20456;-77
2023/08/04 01:23:49;;;;;;;5.32;1.40;;;;;;;26.99;43.16;99452.19;5093032;28;20111;-76
2023/08/04 01:26:15;;;;;;;5.88;1.70;;;;;;;26.98;43.39;99452.31;5093330;28;20547;-76
2023/08/04 01:28:41;;;;;;;4.57;1.52;;;;;;;26.99;43.67;99452.19;5093440;28;20016;-77
2023/08/04 01:31:08;;;;;;;3.65;1.08;;;;;;;26.95;43.84;99456.13;5092990;28;20523;-75
2023/08/04 01:33:35;;;;;;;5.07;1.45;;;;;;;26.94;43.45;99452.56;5093232;28;20119;-76
2023/08/04 01:36:00;;;;;;;4.28;1.38;;;;;;;26.94;43.32;99455.25;5093058;28;20016;-77
2023/08/04 01:38:26;;;;;;;5.22;1.63;;;;;;;26.94;43.76;99455.25;5093454;28;20016;-77
2023/08/04 01:40:51;;;;;;;4.90;1.50;;;;;;;26.92;43.62;99449.19;5093120;28;20028;-76
2023/08/04 01:43:20;;;;;;;4.65;1.30;;;;;;;26.92;43.77;99451.03;5092820;28;20016;-77
2023/08/04 01:45:45;;;;;;;4.47;1.42;;;;;;;26.91;43.79;99443.94;5093027;28;20024;-76
2023/08/04 01:48:11;;;;;;;4.00;1.48;;;;;;;26.91;43.52;99442.16;5092770;28;20041;-77
2023/08/04 01:50:36;;;;;;;4.88;1.63;;;;;;;26.90;43.84;99442.25;5092776;28;20015;-77
2023/08/04 01:53:02;;;;;;;7.00;1.40;;;;;;;26.93;43.66;99447.38;5092849;28;20024;-77
2023/08/04 01:55:27;;;;;;;4.30;1.42;;;;;;;26.89;43.91;99446.78;5092878;28;20027;-76
2023/08/04 01:57:52;;;;;;;4.28;1.35;;;;;;;26.87;43.94;99448.72;5092789;28;20031;-77
2023/08/04 02:00:18;;;;;;;5.72;1.58;;;;;;;26.86;43.66;99448.84;5092393;28;20039;-76
2023/08/04 02:02:44;;;;;;;4.03;1.02;;;;;;;26.84;43.91;99453.47;5092604;28;20074;-76
2023/08/04 02:05:11;;;;;;;4.63;1.40;;;;;;;26.84;43.63;99450.81;5092312;28;20511;-77
2023/08/04 02:07:36;;;;;;;4.43;1.50;;;;;;;26.83;44.01;99452.66;5092613;28;20028;-77
2023/08/04 02:10:03;;;;;;;5.05;1.35;;;;;;;26.82;44.12;99448.25;5092561;28;20031;-76
2023/08/04 02:12:28;;;;;;;6.00;1.70;;;;;;;26.82;43.68;99456.28;5092457;28;20039;-77
2023/08/04 02:14:54;;;;;;;3.97;1.30;;;;;;;26.81;43.94;99458.13;5092413;28;20392;-77
2023/08/04 02:17:19;;;;;;;4.63;1.10;;;;;;;26.80;44.02;99455.59;5091220;28;20088;-77
2023/08/04 02:19:45;;;;;;;3.10;1.17;;;;;;;26.74;44.19;99464.13;5092047;28;20078;-77
2023/08/04 02:22:10;;;;;;;4.35;1.27;;;;;;;26.75;44.06;99466.69;5092465;28;20376;-77
2023/08/04 02:24:36;;;;;;;5.82;1.40;;;;;;;26.76;44.15;99462.16;5092448;28;20027;-78
2023/08/04 02:27:01;;;;;;;4.97;1.30;;;;;;;26.77;44.14;99459.38;5091992;28;20051;-77
2023/08/04 02:29:26;;;;;;;4.68;1.50;;;;;;;26.75;44.17;99458.66;5092402;28;20107;-77
2023/08/04 02:31:52;;;;;;;4.38;1.45;;;;;;;26.73;43.94;99463.28;5092078;28;20597;-77
2023/08/04 02:34:17;;;;;;;4.18;1.40;;;;;;;26.73;43.91;99463.28;5091165;28;20387;-77
2023/08/04 02:36:43;;;;;;;5.45;1.52;;;;;;;26.75;44.04;99466.69;5092298;28;20012;-77
2023/08/04 02:39:08;;;;;;;3.78;1.08;;;;;;;26.72;44.16;99466.94;5092171;28;20511;-76
2023/08/04 02:41:34;;;;;;;4.93;1.38;;;;;;;26.70;44.33;99468.91;5092162;28;20069;-77
2023/08/04 02:44:00;;;;;;;4.07;1.10;;;;;;;26.73;44.22;99463.28;5092189;28;20080;-76
2023/08/04 02:46:25;;;;;;;3.22;1.20;;;;;;;26.71;44.26;99465.25;5091512;28;20038;-77
2023/08/04 02:48:52;;;;;;;4.20;1.20;;;;;;;26.70;44.14;99460.03;5092004;28;20024;-76
2023/08/04 02:51:17;;;;;;;3.83;1.10;;;;;;;26.71;43.96;99459.91;5092022;28;20126;-77
2023/08/04 02:53:45;;;;;;;4.18;1.63;;;;;;;26.71;43.86;99459.91;5091981;28;20119;-77
2023/08/04 02:56:15;;;;;;;4.85;1.33;;;;;;;26.68;44.26;99444.94;5092222;28;20032;-77
2023/08/04 02:58:42;;;;;;;5.25;1.60;;;;;;;26.65;44.36;99449.72;5092160;28;20046;-77
2023/08/04 03:01:08;;;;;;;4.97;1.40;;;;;;;26.66;44.01;99452.28;5091407;28;20105;-78
2023/08/04 03:03:34;;;;;;;3.92;1.15;;;;;;;26.63;44.23;99449.00;5091993;28;20032;-77
2023/08/04 03:06:01;;;;;;;4.97;1.45;;;;;;;26.61;44.43;99454.50;5091971;28;20037;-77
2023/08/04 03:08:27;;;;;;;5.32;1.23;;;;;;;26.61;44.33;99458.97;5091934;28;20070;-77
2023/08/04 03:10:53;;;;;;;5.15;1.30;;;;;;;26.62;44.04;99461.53;5091829;28;20030;-77
2023/08/04 03:13:18;;;;;;;4.18;1.20;;;;;;;26.59;44.30;99448.44;5091746;28;20024;-76
2023/08/04 03:15:44;;;;;;;3.70;1.13;;;;;;;26.62;44.50;99455.31;5091301;28;20545;-77
2023/08/04 03:18:09;;;;;;;3.33;1.08;;;;;;;26.61;44.05;99454.50;5091736;28;20104;-77
2023/08/04 03:20:39;;;;;;;5.03;1.10;;;;;;;26.60;44.01;99450.13;5091676;28;20380;-76
2023/08/04 03:23:06;;;;;;;4.32;1.17;;;;;;;26.60;44.16;99451.94;5091576;28;20016;-76
2023/08/04 03:25:33;;;;;;;5.13;1.52;;;;;;;26.59;44.04;99444.88;5091713;28;20139;-77
2023/08/04 03:27:59;;;;;;;4.50;1.13;;;;;;;26.59;44.28;99451.09;5091536;28;20024;-77
2023/08/04 03:30:24;;;;;;;4.28;1.23;;;;;;;26.60;44.41;99465.31;5091234;28;20104;-77
2023/08/04 03:32:49;;;;;;;5.13;1.38;;;;;;;26.60;44.03;99462.63;5091613;28;20111;-77
2023/08/04 03:35:15;;;;;;;3.67;1.27;;;;;;;26.59;44.43;99464.47;5091622;28;20069;-77
2023/08/04 03:37:40;;;;;;;2.97;1.20;;;;;;;26.58;44.24;99464.59;5091524;28;20583;-77
2023/08/04 03:40:07;;;;;;;4.05;1.20;;;;;;;26.56;44.45;99466.53;5107210;28;20118;-77
2023/08/04 03:42:37;;;;;;;4.05;1.20;;;;;;;26.58;44.21;99464.59;5091687;28;20095;-77
2023/08/04 03:45:04;;;;;;;3.85;1.27;;;;;;;26.57;44.11;99463.75;5091587;28;20099;-77
2023/08/04 03:47:29;;;;;;;3.90;1.20;;;;;;;26.57;44.37;99468.28;5095213;28;20024;-77
2023/08/04 03:49:56;;;;;;;5.72;1.10;;;;;;;26.52;44.28;99461.47;5095357;28;20066;-77
2023/08/04 03:52:21;;;;;;;3.17;1.08;;;;;;;26.53;44.57;99467.66;5095193;28;20067;-76
2023/08/04 03:54:46;;;;;;;2.80;1.10;;;;;;;26.51;44.18;99465.13;5095166;28;20043;-76
2023/08/04 03:57:12;;;;;;;3.63;1.10;;;;;;;26.52;44.33;99472.16;5095052;28;20054;-77
2023/08/04 03:59:37;;;;;;;4.25;1.30;;;;;;;26.53;44.42;99484.56;5094565;28;20042;-76
2023/08/04 04:02:03;;;;;;;5.80;1.48;;;;;;;26.50;44.52;99483.97;5094977;28;20046;-77
2023/08/04 04:04:28;;;;;;;4.30;1.25;;;;;;;26.50;44.30;99478.63;5094778;28;20082;-77
2023/08/04 04:06:53;;;;;;;3.88;1.17;;;;;;;26.46;44.24;99470.03;5094940;28;20024;-76
2023/08/04 04:09:19;;;;;;;3.70;1.13;;;;;;;26.47;44.49;99479.72;5095024;28;20013;-77
2023/08/04 04:11:44;;;;;;;4.50;1.30;;;;;;;26.47;44.28;99479.72;5094731;28;20020;-77
2023/08/04 04:14:10;;;;;;;2.83;0.88;;;;;;;26.44;44.46;99482.66;5094223;28;20032;-77
2023/08/04 04:16:36;;;;;;;3.83;1.05;;;;;;;26.46;44.23;99475.38;5094742;28;20024;-76
2023/08/04 04:19:01;;;;;;;3.05;0.95;;;;;;;26.46;44.43;99477.19;5093068;28;20024;-77
2023/08/04 04:21:26;;;;;;;5.35;1.20;;;;;;;26.41;44.47;99480.25;5094527;28;20054;-77
2023/08/04 04:23:52;;;;;;;4.15;1.30;;;;;;;26.43;44.19;99480.97;5094328;28;20392;-77
2023/08/04 04:26:17;;;;;;;4.05;1.40;;;;;;;26.46;44.25;99487.88;5094458;28;20016;-76
2023/08/04 04:28:43;;;;;;;2.33;0.85;;;;;;;26.40;44.29;99475.88;5094182;28;20035;-76
2023/08/04 04:31:08;;;;;;;5.60;1.33;;;;;;;26.44;44.32;99482.66;5094390;28;20111;-77
2023/08/04 04:33:33;;;;;;;4.47;1.38;;;;;;;26.45;44.43;99481.69;5094129;28;20024;-77
2023/08/04 04:35:59;;;;;;;3.80;1.20;;;;;;;26.45;44.26;99487.06;5094513;28;20085;-76
2023/08/04 04:38:28;;;;;;;3.47;1.00;;;;;;;26.44;44.18;99490.69;5094442;28;20024;-76
2023/08/04 04:41:01;;;;;;;6.15;1.38;;;;;;;26.43;44.18;99486.31;5094104;28;20501;-77
2023/08/04 04:43:28;;;;;;;5.53;1.15;;;;;;;26.42;44.20;99491.81;5093934;28;20056;-76
2023/08/04 04:45:54;;;;;;;3.33;1.13;;;;;;;26.40;44.20;99489.25;5093992;28;20020;-76
2023/08/04 04:48:21;;;;;;;4.25;1.50;;;;;;;26.42;44.35;99495.31;5094226;28;20054;-76
2023/08/04 04:50:46;;;;;;;4.40;1.17;;;;;;;26.42;44.57;99503.34;5094196;28;20020;-76
2023/08/04 04:53:12;;;;;;;4.95;1.52;;;;;;;26.43;44.23;99501.53;5094126;28;20097;-76
2023/08/04 04:55:38;;;;;;;3.25;1.20;;;;;;;26.44;44.24;99501.38;5094192;28;20023;-77
2023/08/04 04:58:03;;;;;;;3.08;1.02;;;;;;;26.43;44.08;99499.69;5092573;28;20526;-76
2023/08/04 05:00:31;;;;;;;4.13;1.30;;;;;;;26.42;44.39;99497.16;5093906;28;20040;-76
2023/08/04 05:02:57;;;;;;;4.25;1.25;;;;;;;26.41;44.53;99501.66;5093778;28;20020;-76
2023/08/04 05:05:22;;;;;;;3.67;1.15;;;;;;;26.37;44.31;99500.19;5093696;28;20028;-76
2023/08/04 05:07:47;;;;;;;4.38;1.40;;;;;;;26.36;44.59;99503.88;5093914;28;20039;-76
2023/08/04 05:10:13;;;;;;;5.05;1.55;;;;;;;26.37;44.19;99502.88;5093743;28;20024;-76
2023/08/04 05:12:38;;;;;;;4.55;1.40;;;;;;;26.37;44.54;99505.56;5093193;28;20099;-76
2023/08/04 05:15:05;;;;;;;4.38;1.20;;;;;;;26.33;44.36;99510.31;5093693;28;20039;-76
2023/08/04 05:17:30;;;;;;;4.57;1.30;;;;;;;26.33;44.54;99506.81;5093366;28;20499;-76
2023/08/04 05:19:55;;;;;;;4.97;1.00;;;;;;;26.32;44.62;99513.97;5092186;28;20028;-76
2023/08/04 05:22:21;;;;;;;4.75;1.15;;;;;;;26.36;44.61;99514.56;5093608;28;20601;-76
2023/08/04 05:24:46;;;;;;;3.85;1.13;;;;;;;26.33;44.52;99514.84;5093606;28;20024;-76
2023/08/04 05:27:12;;;;;;;3.90;1.35;;;;;;;26.32;44.33;99516.66;5093116;28;20039;-76
2023/08/04 05:29:37;;;;;;;4.70;1.38;;;;;;;26.31;44.20;99511.41;5093672;28;20024;-76
2023/08/04 05:32:03;;;;;;;4.95;1.80;;;;;;;26.33;44.24;99509.47;5093240;28;20472;-76
2023/08/04 05:34:28;;;;;;;3.85;1.15;;;;;;;26.35;44.37;99512.88;5092196;28;20063;-77
2023/08/04 05:36:54;;;;;;;3.83;1.15;;;;;;;26.31;44.29;99506.06;5093418;28;20024;-77
2023/08/04 05:39:19;;;;;;;3.25;1.02;;;;;;;26.30;44.32;99509.72;5093116;28;20491;-76
2023/08/04 05:41:45;;;;;;;4.43;1.27;;;;;;;26.29;44.47;99502.69;5092732;28;20053;-76
2023/08/04 05:44:11;;;;;;;5.03;1.13;;;;;;;26.31;44.57;99511.41;5092987;28;20052;-76
2023/08/04 05:46:37;;;;;;;4.28;1.40;;;;;;;26.30;44.15;99504.38;5092991;28;20028;-77
2023/08/04 05:49:03;;;;;;;4.57;1.33;;;;;;;26.29;44.17;99502.69;5092713;28;20022;-77
2023/08/04 05:51:28;;;;;;;4.65;1.05;;;;;;;26.29;44.48;99513.38;5092620;28;20012;-76
2023/08/04 05:53:53;;;;;;;4.32;1.40;;;;;;;26.27;44.57;99513.50;5093093;28;20024;-77
2023/08/04 05:56:19;;;;;;;6.18;1.45;;;;;;;26.27;44.55;99522.38;5091264;28;20035;-76
2023/08/04 05:58:44;;;;;;;3.58;1.00;;;;;;;26.28;44.32;99517.88;5092612;28;20429;-76
2023/08/04 06:01:09;;;;;;;4.80;1.20;;;;;;;26.27;44.29;99511.69;5092336;28;20040;-76
2023/08/04 06:03:35;;;;;;;4.82;1.52;;;;;;;26.23;44.67;99520.94;5092765;28;20408;-76
2023/08/04 06:06:00;;;;;;;3.42;1.60;;;;;;;26.22;44.37;99513.84;5092520;28;20066;-77
2023/08/04 06:08:26;;;;;;;5.63;1.40;;;;;;;26.21;44.29;99517.50;5092492;28;20048;-77
2023/08/04 06:10:51;;;;;;;4.57;1.20;;;;;;;26.19;44.63;99521.28;5092125;28;20028;-76
2023/08/04 06:13:17;;;;;;;4.22;1.35;;;;;;;26.17;44.39;99521.41;5092255;28;20453;-77
2023/08/04 06:15:42;;;;;;;4.95;1.38;;;;;;;26.16;44.65;99529.53;5092212;28;20031;-76
2023/08/04 06:18:08;;;;;;;5.30;1.60;;;;;;;26.16;44.65;99534.91;5092471;28;20073;-76
2023/08/04 06:20:33;;;;;;;4.75;1.38;;;;;;;26.17;44.74;99542.81;5092418;28;20016;-76
2023/08/04 06:22:59;;;;;;;5.38;1.52;;;;;;;26.17;44.31;99540.13;5092191;28;20069;-76
2023/08/04 06:25:24;;;;;;;6.35;1.75;;;;;;;26.16;44.69;99535.75;5091432;28;20388;-77
2023/08/04 06:27:50;;;;;;;4.55;1.20;;;;;;;26.17;44.22;99533.91;5092082;28;20020;-76
2023/08/04 06:30:16;;;;;;;4.20;1.40;;;;;;;26.16;44.36;99543.78;5091828;28;20444;-76
2023/08/04 06:32:41;;;;;;;4.55;1.30;;;;;;;26.13;44.36;99544.88;5091030;28;20039;-77
2023/08/04 06:35:08;;;;;;;3.22;1.10;;;;;;;26.15;44.34;99550.13;5092012;28;20050;-77
2023/08/04 06:37:34;;;;;;;4.47;1.33;;;;;;;26.14;44.65;99548.38;5091503;28;20031;-77
2023/08/04 06:39:59;;;;;;;5.30;1.10;;;;;;;26.18;44.46;99544.50;5090582;28;20042;-76
2023/08/04 06:42:25;;;;;;;4.78;1.08;;;;;;;26.16;44.57;99557.16;5089736;28;20463;-78
2023/08/04 06:44:50;;;;;;;3.42;1.00;;;;;;;26.12;44.72;99555.69;5091293;28;20430;-77
2023/08/04 06:47:16;;;;;;;4.57;1.13;;;;;;;26.18;44.39;99555.19;5090765;28;20064;-77
2023/08/04 06:49:42;;;;;;;5.30;1.60;;;;;;;26.15;44.51;99568.84;5091779;28;20082;-77
2023/08/04 06:52:08;;;;;;;3.38;1.42;;;;;;;26.17;44.76;99574.91;5090782;28;20055;-77
2023/08/04 06:54:34;;;;;;;4.55;1.55;;;;;;;26.18;44.74;99575.72;5091284;28;20067;-77
2023/08/04 06:57:00;;;;;;;3.03;1.13;;;;;;;26.17;44.44;99576.72;5091277;28;20016;-77
2023/08/04 06:59:25;;;;;;;4.82;1.35;;;;;;;26.20;44.45;99582.66;5091193;28;20051;-77
2023/08/04 07:01:51;;;;;;;5.20;1.20;;;;;;;26.21;44.66;99579.03;5090134;28;20016;-76
2023/08/04 07:04:16;;;;;;;5.03;1.48;;;;;;;26.22;44.73;99580.72;5091309;28;20077;-76
2023/08/04 07:06:42;;;;;;;4.45;1.40;;;;;;;26.23;44.69;99585.13;5091127;28;20099;-78
2023/08/04 07:09:07;;;;;;;5.20;1.27;;;;;;;26.21;44.50;99581.69;5090984;28;20020;-77
2023/08/04 07:11:32;;;;;;;7.00;1.55;;;;;;;26.21;44.49;99584.38;5091468;28;20012;-76
2023/08/04 07:13:58;;;;;;;5.13;1.40;;;;;;;26.23;44.43;99587.78;5091259;28;20046;-78
2023/08/04 07:16:23;;;;;;;6.97;1.67;;;;;;;26.20;44.84;99592.53;5090917;28;20028;-77
2023/08/04 07:18:49;;;;;;;9.35;2.25;;;;;;;26.20;44.89;99590.66;5091397;28;20024;-77
2023/08/04 07:21:14;;;;;;;8.80;2.00;;;;;;;26.18;44.80;99583.75;5093478;28;20032;-77
2023/08/04 07:23:41;;;;;;;7.75;2.35;;;;;;;26.16;44.86;99599.06;5095078;28;20044;-76
2023/08/04 07:26:08;;;;;;;10.27;2.42;;;;;;;26.18;44.53;99591.78;5095217;28;20020;-78
2023/08/04 07:28:34;;;;;;;8.30;2.40;;;;;;;26.14;44.58;99601.88;5095395;28;20020;-77
2023/08/04 07:31:04;;;;;;;9.30;2.28;;;;;;;26.13;44.54;99594.81;5095110;28;20024;-77
2023/08/04 07:33:30;;;;;;;9.80;2.20;;;;;;;26.14;44.60;99588.50;5094868;28;20016;-77
2023/08/04 07:35:56;;;;;;;7.55;2.50;;;;;;;26.12;44.75;99590.47;5095180;28;20035;-76
2023/08/04 07:38:22;;;;;;;8.00;2.33;;;;;;;26.13;44.58;99594.81;5094566;28;20028;-77
2023/08/04 07:40:49;;;;;;;8.05;2.00;;;;;;;26.10;44.44;99589.75;5093318;28;20119;-77
2023/08/04 07:43:14;;;;;;;7.18;2.25;;;;;;;26.10;44.61;99584.41;5094746;28;20024;-77
2023/08/04 07:45:40;;;;;;;6.70;1.90;;;;;;;26.06;44.57;99589.16;5094952;28;20031;-76
2023/08/04 07:48:06;;;;;;;7.90;1.90;;;;;;;26.09;44.48;99582.66;5094751;28;20031;-78
2023/08/04 07:50:35;;;;;;;6.63;2.00;;;;;;;26.04;44.41;99584.91;5094560;28;20093;-78
2023/08/04 07:53:00;;;;;;;7.10;1.88;;;;;;;26.01;44.75;99586.81;5094137;28;20137;-76
2023/08/04 07:55:26;;;;;;;8.52;2.33;;;;;;;25.99;44.83;99599.47;5094636;28;20500;-79
2023/08/04 07:57:51;;;;;;;9.50;2.05;;;;;;;25.99;44.69;99588.78;5093147;28;20457;-76
2023/08/04 08:00:17;;;;;;;6.65;1.83;;;;;;;25.98;44.68;99597.78;5094131;28;20056;-77
2023/08/04 08:02:42;;;;;;;8.57;2.00;;;;;;;25.97;44.54;99590.75;5094546;28;20093;-78
2023/08/04 08:05:08;;;;;;;6.07;1.73;;;;;;;25.95;44.32;99590.00;5094352;28;20019;-77
2023/08/04 08:07:34;;;;;;;6.25;1.48;;;;;;;26.01;44.45;99591.34;5093813;28;20398;-78
2023/08/04 08:10:00;;;;;;;6.68;1.73;;;;;;;25.98;44.49;99603.13;5092505;28;20506;-78
2023/08/04 08:12:25;;;;;;;6.90;2.03;;;;;;;25.99;44.76;99609.31;5093976;28;20020;-78
2023/08/04 08:14:50;;;;;;;7.75;2.17;;;;;;;25.98;44.80;99602.25;5093967;28;20423;-77
2023/08/04 08:17:16;;;;;;;8.13;2.38;;;;;;;25.99;44.72;99609.31;5094049;28;20019;-79
2023/08/04 08:19:41;;;;;;;6.38;2.00;;;;;;;25.98;44.84;99608.47;5094291;28;20441;-78
2023/08/04 08:22:08;;;;;;;6.45;1.70;;;;;;;25.98;44.72;99607.63;5093446;28;20103;-78
2023/08/04 08:24:33;;;;;;;6.28;2.00;;;;;;;25.99;44.87;99614.66;5094024;28;20012;-79
2023/08/04 08:26:59;;;;;;;5.82;1.90;;;;;;;25.97;44.50;99606.78;5093529;28;20019;-78
2023/08/04 08:29:24;;;;;;;6.03;1.60;;;;;;;25.99;44.65;99611.97;5093800;28;20027;-78
2023/08/04 08:31:49;;;;;;;7.32;1.58;;;;;;;26.00;44.38;99619.88;5093341;28;20023;-77
2023/08/04 08:34:15;;;;;;;6.00;1.85;;;;;;;25.99;44.29;99618.19;5093812;28;20115;-78
2023/08/04 08:36:40;;;;;;;4.45;1.80;;;;;;;25.98;44.69;99624.50;5093461;28;20012;-78
2023/08/04 08:39:07;;;;;;;7.38;1.55;;;;;;;25.99;44.48;99626.22;5093561;28;20524;-78
2023/08/04 08:41:32;;;;;;;5.65;1.80;;;;;;;26.00;44.65;99627.91;5093516;28;20012;-77
2023/08/04 08:43:57;;;;;;;7.32;1.63;;;;;;;26.01;44.39;99634.13;5093100;28;20074;-78
2023/08/04 08:46:24;;;;;;;7.38;2.03;;;;;;;26.01;44.61;99640.28;5091748;28;20032;-77
2023/08/04 08:48:50;;;;;;;7.05;1.75;;;;;;;26.01;44.36;99640.28;5092831;28;20042;-77
2023/08/04 08:51:20;;;;;;;6.03;1.52;;;;;;;26.00;44.25;99643.09;5091077;28;20479;-79
2023/08/04 08:53:48;;;;;;;5.43;1.70;;;;;;;26.01;44.30;99640.28;5093060;28;20496;-78
2023/08/04 08:56:15;;;;;;;8.57;2.42;;;;;;;26.01;44.33;99639.47;5095059;28;20030;-79
2023/08/04 08:58:42;;;;;;;5.68;1.73;;;;;;;26.01;44.58;99640.28;5091027;28;20553;-78
2023/08/04 09:01:08;;;;;;;5.57;1.80;;;;;;;26.03;44.39;99642.00;5095600;28;20032;-78
2023/08/04 09:03:35;;;;;;;6.32;1.70;;;;;;;26.04;44.60;99647.22;5089009;28;20396;-78
2023/08/04 09:06:00;;;;;;;5.68;1.80;;;;;;;26.04;44.63;99643.72;5091194;28;20387;-79
2023/08/04 09:08:27;;;;;;;6.10;1.92;;;;;;;26.04;44.69;99643.72;5092369;28;20023;-78
2023/08/04 09:10:53;;;;;;;6.30;1.80;;;;;;;26.05;44.60;99651.59;5091600;28;20119;-79
2023/08/04 09:13:19;;;;;;;6.28;2.22;;;;;;;26.05;44.39;99645.41;5099590;28;20106;-78
2023/08/04 09:15:50;;;;;;;5.80;1.63;;;;;;;26.05;44.28;99645.41;5090667;28;20549;-76
2023/08/04 09:18:42;;;;;;;11.20;2.20;;;;;;;26.03;44.67;99645.53;5090680;28;20028;-76
2023/08/04 09:21:08;;;;;;;31.40;3.95;;;;;;;25.99;44.67;99642.25;5093946;28;20073;-75
2023/08/04 09:23:52;;;;;;;24.13;3.63;;;;;;;26.01;44.65;99656.34;5092434;28;20095;-79
2023/08/04 09:26:18;;;;;;;13.50;2.38;;;;;;;25.99;44.66;99652.94;5092811;28;20044;-77
2023/08/04 09:28:43;;;;;;;10.80;2.40;;;;;;;26.04;44.64;99657.09;5091050;28;20117;-77
2023/08/04 09:31:10;;;;;;;8.40;2.15;;;;;;;26.05;44.22;99645.41;5092736;28;20093;-78
2023/08/04 09:33:41;;;;;;;10.15;2.15;;;;;;;26.04;44.32;99649.91;5093030;28;20020;-78
2023/08/04 09:36:15;;;;;;;10.88;2.42;;;;;;;26.04;44.08;99660.59;5094139;28;20020;-79
2023/08/04 09:38:42;;;;;;;9.02;2.30;;;;;;;26.05;43.98;99653.44;5088449;28;20089;-79
2023/08/04 09:41:10;;;;;;;8.88;2.50;;;;;;;26.05;43.96;99653.44;5095783;28;20047;-80
2023/08/04 09:43:43;;;;;;;6.38;1.77;;;;;;;26.06;44.17;99660.47;5090269;28;20031;-79
2023/08/04 09:46:08;;;;;;;6.75;1.90;;;;;;;26.07;43.99;99664.84;5091305;28;20027;-79
2023/08/04 09:48:34;;;;;;;7.35;2.05;;;;;;;26.09;44.05;99665.56;5091051;28;20082;-79
2023/08/04 09:51:08;;;;;;;9.88;1.83;;;;;;;26.07;43.89;99665.72;5094713;28;20020;-78
2023/08/04 09:53:48;;;;;;;10.38;2.20;;;;;;;26.07;44.13;99654.16;5086520;28;20024;-77
2023/08/04 09:56:16;;;;;;;5.53;1.70;;;;;;;26.06;43.83;99658.66;5093030;28;20031;-77
2023/08/04 09:58:42;;;;;;;6.93;1.70;;;;;;;26.07;44.00;99659.50;5088857;28;20024;-77
2023/08/04 10:01:08;;;;;;;6.40;2.15;;;;;;;26.08;43.99;99661.19;5093082;28;20474;-77
2023/08/04 10:03:36;;;;;;;7.30;2.08;;;;;;;26.08;44.05;99661.19;5091038;28;20096;-78
2023/08/04 10:06:05;;;;;;;5.93;1.77;;;;;;;26.09;43.93;99657.53;5092579;28;20039;-78
2023/08/04 10:08:32;;;;;;;6.93;2.47;;;;;;;26.08;44.00;99661.19;5103503;28;20028;-78
2023/08/04 10:10:59;;;;;;;6.20;2.22;;;;;;;26.08;43.93;99669.22;5089925;28;20144;-78
2023/08/04 10:13:34;;;;;;;6.20;1.98;;;;;;;26.11;43.70;99663.63;5092022;28;20098;-78
2023/08/04 10:16:03;;;;;;;4.63;1.77;;;;;;;26.08;43.68;99656.72;5090537;28;20428;-78
2023/08/04 10:18:47;;;;;;;5.40;1.65;;;;;;;26.09;43.94;99662.88;5094152;28;20028;-79
2023/08/04 10:21:13;;;;;;;6.03;1.73;;;;;;;26.09;43.90;99646.84;5093742;28;20040;-79
2023/08/04 10:23:39;;;;;;;6.30;2.00;;;;;;;26.11;43.66;99663.63;5091392;28;20464;-78
2023/08/04 10:26:05;;;;;;;4.55;1.73;;;;;;;26.08;44.02;99671.88;5091573;28;20069;-79
2023/08/04 10:28:31;;;;;;;4.82;1.77;;;;;;;26.10;43.39;99659.28;5091709;28;20031;-80
2023/08/04 10:31:11;;;;;;;5.03;2.03;;;;;;;26.08;43.67;99662.06;5094881;28;20035;-78
2023/08/04 10:33:37;;;;;;;4.70;1.65;;;;;;;26.09;43.46;99665.56;5087687;28;20017;-78
2023/08/04 10:36:03;;;;;;;5.32;1.70;;;;;;;26.07;43.21;99667.53;5087612;28;20028;-78
2023/08/04 10:38:42;;;;;;;5.72;1.80;;;;;;;26.07;43.04;99680.88;5089263;28;20028;-80
2023/08/04 10:41:08;;;;;;;6.30;1.92;;;;;;;26.07;43.34;99673.72;5091448;28;20106;-80
2023/08/04 10:43:38;;;;;;;5.03;1.80;;;;;;;26.08;43.35;99666.53;5091394;28;20107;-79
2023/08/04 10:46:10;;;;;;;5.18;1.63;;;;;;;26.06;43.51;99666.69;5087339;28;20020;-79
2023/08/04 10:48:39;;;;;;;3.08;1.38;;;;;;;26.07;43.44;99667.53;5089366;28;20466;-80
2023/08/04 10:51:06;;;;;;;8.13;1.83;;;;;;;26.07;43.69;99673.72;5087884;28;20029;-79
2023/08/04 10:53:32;;;;;;;5.85;1.60;;;;;;;26.08;43.58;99656.72;5084962;28;20100;-79
2023/08/04 10:55:58;;;;;;;4.35;1.70;;;;;;;26.08;43.97;99661.19;5092983;28;20437;-79
2023/08/04 10:58:26;;;;;;;5.85;1.70;;;;;;;26.07;44.07;99670.19;5094234;28;20035;-81
2023/08/04 11:00:52;;;;;;;5.55;1.85;;;;;;;26.06;43.75;99672.03;5095373;28;20028;-79
2023/08/04 11:03:23;;;;;;;4.93;1.70;;;;;;;26.06;44.04;99677.38;5092817;28;20031;-79
2023/08/04 11:05:50;;;;;;;4.32;1.38;;;;;;;26.07;43.85;99670.19;5091391;28;20434;-80
2023/08/04 11:08:17;;;;;;;2.90;1.25;;;;;;;26.08;44.21;99677.25;5097414;28;20674;-80
2023/08/04 11:10:50;;;;;;;4.18;1.30;;;;;;;26.10;44.18;99678.00;5092148;28;20027;-79
2023/08/04 11:13:19;;;;;;;4.50;1.38;;;;;;;26.09;44.08;99662.88;5090893;28;20042;-80
2023/08/04 11:15:46;;;;;;;4.07;1.50;;;;;;;26.11;43.94;99658.28;5093491;28;20024;-79
2023/08/04 11:18:20;;;;;;;4.63;1.50;;;;;;;26.13;43.99;99659.00;5092389;28;21004;-80
2023/08/04 11:20:46;;;;;;;4.63;1.33;;;;;;;26.14;43.84;99660.69;5091921;28;20449;-81
2023/08/04 11:23:12;;;;;;;4.40;1.50;;;;;;;26.15;43.98;99657.06;5087939;28;20108;-81
2023/08/04 11:25:39;;;;;;;3.50;1.42;;;;;;;26.16;44.17;99673.97;5093186;28;20055;-80
2023/08/04 11:28:06;;;;;;;3.58;1.60;;;;;;;26.14;43.95;99688.31;5093682;28;20016;-80
2023/08/04 11:30:36;;;;;;;5.53;1.98;;;;;;;26.15;44.03;99681.16;5097046;28;20093;-82